Station Historical Data
Daily Summary for February 24, 2012 Units:  English    Metric   Both
« Previous Day
Next Day »
Daily Weekly Monthly Yearly Custom
  High: Low: Average:
Temperature: 67.8 °F 36.9 °F 50.5 °F
Dew Point: 45 °F 32.7 °F 38.3 °F
Humidity: 86% 34% 66%
Wind Speed: 5mph 0mph 2mph
Wind Gust: 9mph - -
Wind- - West
Pressure: 30.2 in 30 in -
Precipitation: 0 in    
Historical Graphs
 
 
Tabular Data for February 24, 2012
Time Temperature Dew Point Pressure Wind Wind Speed Wind Gust Humidity Rainfall Rate (Hourly)
00:00 44.4 °F 37 °F 30.1 in WSW 2 mph 3 mph 75% 0 in
00:10 44.8 °F 37.2 °F 30.1 in WSW 2 mph 3 mph 75% 0 in
00:20 44.8 °F 37 °F 30.1 in WSW 2 mph 3 mph 74% 0 in
00:30 44.8 °F 37 °F 30.1 in SW 1 mph 2 mph 74% 0 in
00:40 44.8 °F 37.2 °F 30.1 in WSW 1 mph 2 mph 75% 0 in
00:50 44.4 °F 36.7 °F 30.1 in SW 2 mph 2 mph 74% 0 in
01:00 44.2 °F 36.9 °F 30.1 in SW 1 mph 2 mph 75% 0 in
01:10 44.1 °F 36.7 °F 30.1 in SW 2 mph 3 mph 75% 0 in
01:20 44.1 °F 37 °F 30.1 in SW 1 mph 2 mph 76% 0 in
01:30 44.1 °F 37 °F 30.1 in West 2 mph 3 mph 76% 0 in
01:40 44.1 °F 37 °F 30.1 in West 2 mph 3 mph 76% 0 in
01:50 44.1 °F 36.7 °F 30.1 in West 2 mph 3 mph 75% 0 in
02:00 44.2 °F 36.9 °F 30.1 in West 2 mph 3 mph 75% 0 in
02:10 43.9 °F 36.5 °F 30.1 in West 2 mph 4 mph 75% 0 in
02:20 43.7 °F 36.3 °F 30.1 in West 2 mph 4 mph 75% 0 in
02:30 43.5 °F 36.1 °F 30.1 in WNW 2 mph 3 mph 75% 0 in
02:40 43.3 °F 36 °F 30.1 in West 2 mph 3 mph 75% 0 in
02:50 42.8 °F 35.4 °F 30.1 in WSW 2 mph 2 mph 75% 0 in
03:00 42.1 °F 34.7 °F 30.1 in West 1 mph 2 mph 75% 0 in
03:10 41.9 °F 34.9 °F 30.1 in West 1 mph 2 mph 76% 0 in
03:20 41 °F 34.3 °F 30.1 in Calm   2 mph 77% 0 in
03:30 40.5 °F 33.8 °F 30.1 in SW 1 mph 1 mph 77% 0 in
03:40 39.7 °F 33.8 °F 30.1 in Calm   1 mph 79% 0 in
03:50 39.4 °F 33.6 °F 30.1 in Calm   2 mph 80% 0 in
04:00 38.8 °F 33.4 °F 30.1 in NNW 2 mph 3 mph 81% 0 in
04:10 38.7 °F 33.3 °F 30.1 in Calm   1 mph 81% 0 in
04:20 38.3 °F 33.3 °F 30.1 in Calm   1 mph 82% 0 in
04:30 38.1 °F 33.1 °F 30.1 in NW 1 mph 2 mph 82% 0 in
04:40 38.1 °F 33.1 °F 30.1 in NNW 1 mph 2 mph 82% 0 in
04:50 37.8 °F 32.7 °F 30.1 in WNW 1 mph 2 mph 82% 0 in
05:00 37.9 °F 33.4 °F 30.1 in NW 1 mph 2 mph 84% 0 in
05:10 37.8 °F 33.4 °F 30.1 in WNW 1 mph 2 mph 84% 0 in
05:20 37.8 °F 33.6 °F 30.1 in NW 1 mph 2 mph 85% 0 in
05:30 37.4 °F 33.1 °F 30.1 in WSW 1 mph 2 mph 84% 0 in
05:40 37.2 °F 32.7 °F 30.1 in West 2 mph 2 mph 84% 0 in
05:50 37.6 °F 33.4 °F 30.1 in WSW 2 mph 2 mph 85% 0 in
06:00 37.2 °F 33.1 °F 30.1 in West 1 mph 2 mph 85% 0 in
06:10 37.2 °F 32.7 °F 30.1 in West 2 mph 3 mph 84% 0 in
06:20 36.9 °F 32.7 °F 30.1 in WSW 2 mph 3 mph 85% 0 in
06:30 37 °F 33.3 °F 30.1 in West 3 mph 4 mph 86% 0 in
06:40 37.8 °F 33.6 °F 30.1 in West 3 mph 5 mph 85% 0 in
06:50 37.9 °F 33.8 °F 30.1 in West 2 mph 4 mph 85% 0 in
07:00 38.3 °F 34 °F 30.1 in West 3 mph 5 mph 84% 0 in
07:10 38.3 °F 34 °F 30.1 in West 2 mph 4 mph 84% 0 in
07:20 38.3 °F 33.6 °F 30.1 in WSW 2 mph 4 mph 83% 0 in
07:30 37.8 °F 33.1 °F 30.2 in WSW 2 mph 2 mph 83% 0 in
07:40 37.9 °F 33.4 °F 30.2 in WSW 1 mph 2 mph 84% 0 in
07:50 38.5 °F 34.2 °F 30.2 in West 2 mph 4 mph 84% 0 in
08:00 39.2 °F 34.5 °F 30.2 in West 2 mph 3 mph 83% 0 in
08:10 40.1 °F 35.4 °F 30.2 in West 1 mph 3 mph 83% 0 in
08:20 41 °F 36 °F 30.2 in Calm   1 mph 82% 0 in
08:30 42.3 °F 37.6 °F 30.2 in Calm   1 mph 83% 0 in
08:40 43.5 °F 38.1 °F 30.2 in Calm     81% 0 in
08:50 45.3 °F 39.6 °F 30.2 in Calm     80% 0 in
09:00 45.9 °F 37.9 °F 30.2 in Calm   2 mph 74% 0 in
09:10 47.1 °F 38.7 °F 30.2 in SW 1 mph 2 mph 72% 0 in
09:20 48.2 °F 39.9 °F 30.2 in SSW 1 mph 2 mph 73% 0 in
09:30 49.3 °F 40.6 °F 30.2 in SW 1 mph 2 mph 72% 0 in
09:40 50.4 °F 40.8 °F 30.2 in SW 1 mph 2 mph 70% 0 in
09:50 51.6 °F 41.4 °F 30.2 in Calm   1 mph 68% 0 in
10:00 52.9 °F 41 °F 30.2 in WSW 1 mph 3 mph 64% 0 in
10:10 53.8 °F 38.5 °F 30.2 in WNW 2 mph 5 mph 56% 0 in
10:20 54.5 °F 39 °F 30.2 in WNW 2 mph 5 mph 56% 0 in
10:30 55.4 °F 39.6 °F 30.2 in WNW 2 mph 5 mph 55% 0 in
10:40 56.1 °F 39.7 °F 30.2 in NW 3 mph 7 mph 54% 0 in
10:50 56.5 °F 39 °F 30.2 in NW 5 mph 7 mph 52% 0 in
11:00 56.8 °F 38.8 °F 30.2 in WNW 5 mph 7 mph 51% 0 in
11:10 57.9 °F 40.5 °F 30.2 in WNW 3 mph 6 mph 52% 0 in
11:20 58.6 °F 40.5 °F 30.2 in NNW 5 mph 7 mph 51% 0 in
11:30 59 °F 39.9 °F 30.2 in NW 5 mph 7 mph 49% 0 in
11:40 59 °F 39.9 °F 30.2 in WNW 5 mph 7 mph 49% 0 in
11:50 59.9 °F 41.7 °F 30.2 in NW 5 mph 7 mph 51% 0 in
12:00 60.4 °F 41.2 °F 30.2 in NNW 5 mph 8 mph 49% 0 in
12:10 60.4 °F 39.6 °F 30.2 in NW 5 mph 7 mph 46% 0 in
12:20 61.3 °F 41.5 °F 30.2 in NNW 5 mph 7 mph 48% 0 in
12:30 61.7 °F 40.6 °F 30.2 in NNW 5 mph 7 mph 46% 0 in
12:40 62.1 °F 41 °F 30.2 in NNW 5 mph 7 mph 46% 0 in
12:50 62.8 °F 42.8 °F 30.2 in North 5 mph 6 mph 48% 0 in
13:00 62.8 °F 42.3 °F 30.2 in NW 5 mph 8 mph 47% 0 in
13:10 63.1 °F 40.3 °F 30.2 in NW 3 mph 6 mph 43% 0 in
13:20 63.7 °F 42.4 °F 30.2 in NNW 3 mph 7 mph 46% 0 in
13:30 64.2 °F 42.4 °F 30.1 in North 3 mph 6 mph 45% 0 in
13:40 64.9 °F 40.6 °F 30.1 in North 5 mph 7 mph 41% 0 in
13:50 65.3 °F 41 °F 30.1 in North 3 mph 5 mph 41% 0 in
14:00 65.7 °F 39.9 °F 30.1 in NW 3 mph 6 mph 39% 0 in
14:10 65.7 °F 39.9 °F 30.1 in NNW 3 mph 6 mph 39% 0 in
14:20 66.4 °F 39.9 °F 30.1 in NNW 5 mph 6 mph 38% 0 in
14:30 66 °F 38.3 °F 30.1 in WNW 5 mph 6 mph 36% 0 in
14:40 66.2 °F 39 °F 30.1 in NW 5 mph 9 mph 37% 0 in
14:50 67.3 °F 40.8 °F 30.1 in NW 3 mph 6 mph 38% 0 in
15:00 66.9 °F 38.5 °F 30.1 in WNW 5 mph 5 mph 35% 0 in
15:10 67.3 °F 38.7 °F 30.1 in NW 3 mph 6 mph 35% 0 in
15:20 66.9 °F 39 °F 30.1 in WNW 5 mph 6 mph 36% 0 in
15:30 67.3 °F 38.7 °F 30.1 in WNW 2 mph 6 mph 35% 0 in
15:40 67.3 °F 38.7 °F 30.1 in NW 2 mph 6 mph 35% 0 in
15:50 67.1 °F 37.8 °F 30.1 in WNW 3 mph 6 mph 34% 0 in
16:00 67.8 °F 39.9 °F 30.1 in West 2 mph 4 mph 36% 0 in
16:10 67.5 °F 39.6 °F 30.1 in West 3 mph 5 mph 36% 0 in
16:20 67.3 °F 38.7 °F 30.1 in NW 2 mph 5 mph 35% 0 in
16:30 67.3 °F 38.7 °F 30.1 in WNW 2 mph 5 mph 35% 0 in
16:40 66.9 °F 39 °F 30.1 in West 2 mph 5 mph 36% 0 in
16:50 66.9 °F 38.5 °F 30.1 in West 2 mph 3 mph 35% 0 in
17:00 66.7 °F 38.8 °F 30.1 in NW 2 mph 3 mph 36% 0 in
17:10 65.7 °F 38.7 °F 30.1 in NW 2 mph 3 mph 37% 0 in
17:20 64.8 °F 39.9 °F 30.1 in NW 1 mph 2 mph 40% 0 in
17:30 63.5 °F 45 °F 30.1 in WSW 2 mph 3 mph 51% 0 in
17:40 61.2 °F 45 °F 30.1 in SSW 2 mph 3 mph 55% 0 in
17:50 60.1 °F 44.2 °F 30.1 in SSW 2 mph 2 mph 56% 0 in
18:00 59.2 °F 44.4 °F 30.1 in SSW 1 mph 2 mph 58% 0 in
18:10 58.6 °F 43.9 °F 30.1 in SSW 1 mph 1 mph 58% 0 in
18:20 57.6 °F 43.9 °F 30.1 in SSW 1 mph 1 mph 60% 0 in
18:30 57 °F 43.3 °F 30.1 in Calm   1 mph 60% 0 in
18:40 55.6 °F 42.8 °F 30.1 in Calm   1 mph 62% 0 in
18:50 54.7 °F 42.3 °F 30.1 in SW 1 mph 1 mph 63% 0 in
19:00 53.6 °F 41.7 °F 30.1 in SSW 1 mph 1 mph 64% 0 in
19:10 52.9 °F 41.7 °F 30.1 in Calm   1 mph 66% 0 in
19:20 52.3 °F 41.7 °F 30.1 in SE 1 mph 2 mph 67% 0 in
19:30 52 °F 41.7 °F 30.1 in SE 1 mph 2 mph 68% 0 in
19:40 51.3 °F 41.7 °F 30.1 in SE 1 mph 2 mph 70% 0 in
19:50 50.5 °F 41.2 °F 30.1 in SSE 2 mph 3 mph 70% 0 in
20:00 49.8 °F 41.5 °F 30.1 in SSE 2 mph 3 mph 73% 0 in
20:10 49.1 °F 40.8 °F 30.1 in South 2 mph 3 mph 73% 0 in
20:20 48.6 °F 40.3 °F 30.1 in South 1 mph 2 mph 73% 0 in
20:30 48 °F 40.5 °F 30.1 in South 1 mph 2 mph 75% 0 in
20:40 47.5 °F 39.9 °F 30.1 in SSW 1 mph 2 mph 75% 0 in
20:50 46.9 °F 40.1 °F 30.1 in SSW 1 mph 2 mph 77% 0 in
21:00 46.4 °F 39.6 °F 30.1 in SSW 2 mph 3 mph 77% 0 in
21:10 46.2 °F 40.1 °F 30.1 in SW 2 mph 3 mph 79% 0 in
21:20 46.4 °F 40.3 °F 30.1 in SW 2 mph 3 mph 79% 0 in
21:30 46.4 °F 39.9 °F 30.1 in SW 2 mph 3 mph 78% 0 in
21:40 46 °F 38.8 °F 30.1 in SW 1 mph 2 mph 76% 0 in
21:50 45.7 °F 38.8 °F 30.1 in WSW 2 mph 2 mph 77% 0 in
22:00 45.9 °F 39.4 °F 30.1 in WSW 2 mph 3 mph 78% 0 in
22:10 46.6 °F 39.7 °F 30.1 in WSW 2 mph 3 mph 77% 0 in
22:20 46.6 °F 39.4 °F 30.1 in West 2 mph 4 mph 76% 0 in
22:30 46.8 °F 38.8 °F 30.1 in WSW 2 mph 3 mph 74% 0 in
22:40 46.6 °F 38.7 °F 30.1 in Calm   2 mph 74% 0 in
22:50 44.2 °F 36.1 °F 30.1 in SSE 1 mph 2 mph 73% 0 in
23:00 43.3 °F 36.7 °F 30.1 in Calm   2 mph 77% 0 in
23:10 43 °F 36.9 °F 30.1 in SW 1 mph 2 mph 79% 0 in
23:20 43 °F 37.9 °F 30.1 in SW 2 mph 3 mph 82% 0 in
23:30 43.3 °F 37.9 °F 30 in WSW 2 mph 3 mph 81% 0 in
23:40 43.7 °F 37.9 °F 30 in WSW 2 mph 3 mph 80% 0 in
23:50 43.5 °F 37.4 °F 30 in WNW 1 mph 2 mph 79% 0 in
Juneau County Weather
Compliments of Weather Underground